Geervliet — PCLI — position and weather

sailwx.info

Track history (hours):
 
Tides and Currents Weather Stations Pressure Air Temp Water Temp Dewpoint Dewpoint Depression Visibility Wind Speed Wind Dir Waves Ship Positions

Geervliet

Last reported at 2014-Sep-16 16:07 UTC. Time now 2014-Sep-18 23:44 UTC.
Position N 38°13' W 009°40'.

Length 86 m; draft 4.2 m.

Type: Cargo ship. MMSI: 246803000.

Date/timePositionNaut miles runAvg speedWind from/ knotsBaromVisibWave heightAir tempDewpointWater temp
2014-Sep-16 16:07N 38°13' W 009°40'610.0
2014-Sep-16 15:33N 38°07' W 009°39'1010.1
2014-Sep-16 14:33N 37°57' W 009°37'1010.2
2014-Sep-16 13:33N 37°47' W 009°34'10 9.7
2014-Sep-16 12:33N 37°38' W 009°32'67 8.3
2014-Sep-16 04:33N 36°41' W 008°48'9 9.0
2014-Sep-16 03:33N 36°39' W 008°37'166 9.6
2014-Sep-15 10:17N 35°54' W 005°19'0 0.4
2014-Sep-15 09:33N 35°54' W 005°18'0 0.0
2014-Sep-15 08:33N 35°54' W 005°18'0 0.0
2014-Sep-15 07:33N 35°54' W 005°18'1 0.6
2014-Sep-15 06:34N 35°54' W 005°19'1 1.0
2014-Sep-15 05:32N 35°55' W 005°20'0 0.0
2014-Sep-15 04:32N 35°55' W 005°20'0 0.1
2014-Sep-15 03:32N 35°55' W 005°20'0 0.0
2014-Sep-15 02:32N 35°55' W 005°20'0 0.5
2014-Sep-15 01:34N 35°55' W 005°19'1 1.1
2014-Sep-15 00:34N 35°56' W 005°19'170 8.8
2014-Sep-14 05:15N 35°57' W 001°48'29 9.4
2014-Sep-14 02:08N 36°03' W 001°13'6010.1
2014-Sep-13 20:13N 36°26' W 000°04'1710.0
2014-Sep-13 18:33N 36°33' E 000°15'1010.0
2014-Sep-13 17:33N 36°37' E 000°26'10 9.9
2014-Sep-13 16:32N 36°40' E 000°38'1210.3
2014-Sep-13 15:24N 36°44' E 000°52'910.0
2014-Sep-13 14:29N 36°48' E 001°02'910.0
2014-Sep-13 13:33N 36°52' E 001°13'1010.1
2014-Sep-13 12:32N 36°54' E 001°25'1010.5
2014-Sep-13 11:33N 36°57' E 001°38'3110.5
2014-Sep-13 08:33N 37°03' E 002°16'1010.3
2014-Sep-13 07:33N 37°05' E 002°29'1010.1
2014-Sep-13 06:33N 37°07' E 002°42'10 9.9
2014-Sep-13 05:33N 37°09' E 002°54'10 9.5
2014-Sep-13 04:33N 37°10' E 003°05'9 9.3
2014-Sep-13 03:33N 37°11' E 003°17'9 9.1
2014-Sep-13 02:33N 37°12' E 003°28'9 9.2
2014-Sep-13 01:33N 37°13' E 003°40'10 9.4
2014-Sep-13 00:32N 37°14' E 003°52'10 9.6
2014-Sep-12 23:29N 37°15' E 004°05'9 9.8
2014-Sep-12 22:33N 37°15' E 004°16'13 9.9
2014-Sep-12 21:15N 37°16' E 004°32'710.1
2014-Sep-12 20:33N 37°17' E 004°41'1010.1
2014-Sep-12 19:33N 37°19' E 004°53'22410.0
2014-Sep-11 21:07N 37°40' E 009°35'7 9.3
2014-Sep-11 20:24N 37°40' E 009°43'8 9.5
2014-Sep-11 19:33N 37°40' E 009°53'20 9.3
2014-Sep-11 17:23N 37°40' E 010°19'8 9.8
2014-Sep-11 16:32N 37°39' E 010°30'1010.1
2014-Sep-11 15:34N 37°39' E 010°42'1010.1
2014-Sep-11 14:34N 37°39' E 010°55'1010.0
2014-Sep-11 13:32N 37°39' E 011°08'13010.5
2014-Sep-11 01:14N 36°60' E 013°43'710.8
2014-Sep-11 00:34N 36°57' E 013°51'1110.8
2014-Sep-10 23:34N 36°53' E 014°04'1110.7
2014-Sep-10 22:34N 36°49' E 014°16'1111.4
2014-Sep-10 21:34N 36°44' E 014°29'1110.9
2014-Sep-10 20:34N 36°40' E 014°42'1510.4
2014-Sep-10 19:09N 36°35' E 014°59'710.4
2014-Sep-10 18:31N 36°34' E 015°07'429 9.3
2014-Sep-08 20:16N 37°27' E 024°00'710.0
2014-Sep-08 19:33N 37°33' E 024°05'14 9.9
2014-Sep-08 18:06N 37°45' E 024°16'1610.1
2014-Sep-08 16:33N 37°54' E 024°32'12610.4
2014-Sep-08 04:30N 39°46' E 025°45'  
Track history (hours):
 
Tides and Currents Weather Stations Pressure Air Temp Water Temp Dewpoint Dewpoint Depression Visibility Wind Speed Wind Dir Waves Ship Positions

Geervliet

Last reported at 2014-Sep-16 16:07 UTC. Time now 2014-Sep-18 23:44 UTC.
Position N 38°13' W 009°40'.

Length 86 m; draft 4.2 m.

Type: Cargo ship. MMSI: 246803000.

Date/timePositionNaut miles runAvg speedWind from/ knotsBaromVisibWave heightAir tempDewpointWater temp
2014-Sep-16 16:07N 38°13' W 009°40'610.0
2014-Sep-16 15:33N 38°07' W 009°39'1010.1
2014-Sep-16 14:33N 37°57' W 009°37'1010.2
2014-Sep-16 13:33N 37°47' W 009°34'10 9.7
2014-Sep-16 12:33N 37°38' W 009°32'67 8.3
2014-Sep-16 04:33N 36°41' W 008°48'9 9.0
2014-Sep-16 03:33N 36°39' W 008°37'166 9.6
2014-Sep-15 10:17N 35°54' W 005°19'0 0.4
2014-Sep-15 09:33N 35°54' W 005°18'0 0.0
2014-Sep-15 08:33N 35°54' W 005°18'0 0.0
2014-Sep-15 07:33N 35°54' W 005°18'1 0.6
2014-Sep-15 06:34N 35°54' W 005°19'1 1.0
2014-Sep-15 05:32N 35°55' W 005°20'0 0.0
2014-Sep-15 04:32N 35°55' W 005°20'0 0.1
2014-Sep-15 03:32N 35°55' W 005°20'0 0.0
2014-Sep-15 02:32N 35°55' W 005°20'0 0.5
2014-Sep-15 01:34N 35°55' W 005°19'1 1.1
2014-Sep-15 00:34N 35°56' W 005°19'170 8.8
2014-Sep-14 05:15N 35°57' W 001°48'29 9.4
2014-Sep-14 02:08N 36°03' W 001°13'6010.1
2014-Sep-13 20:13N 36°26' W 000°04'1710.0
2014-Sep-13 18:33N 36°33' E 000°15'1010.0
2014-Sep-13 17:33N 36°37' E 000°26'10 9.9
2014-Sep-13 16:32N 36°40' E 000°38'1210.3
2014-Sep-13 15:24N 36°44' E 000°52'910.0
2014-Sep-13 14:29N 36°48' E 001°02'910.0
2014-Sep-13 13:33N 36°52' E 001°13'1010.1
2014-Sep-13 12:32N 36°54' E 001°25'1010.5
2014-Sep-13 11:33N 36°57' E 001°38'3110.5
2014-Sep-13 08:33N 37°03' E 002°16'1010.3
2014-Sep-13 07:33N 37°05' E 002°29'1010.1
2014-Sep-13 06:33N 37°07' E 002°42'10 9.9
2014-Sep-13 05:33N 37°09' E 002°54'10 9.5
2014-Sep-13 04:33N 37°10' E 003°05'9 9.3
2014-Sep-13 03:33N 37°11' E 003°17'9 9.1
2014-Sep-13 02:33N 37°12' E 003°28'9 9.2
2014-Sep-13 01:33N 37°13' E 003°40'10 9.4
2014-Sep-13 00:32N 37°14' E 003°52'10 9.6
2014-Sep-12 23:29N 37°15' E 004°05'9 9.8
2014-Sep-12 22:33N 37°15' E 004°16'13 9.9
2014-Sep-12 21:15N 37°16' E 004°32'710.1
2014-Sep-12 20:33N 37°17' E 004°41'1010.1
2014-Sep-12 19:33N 37°19' E 004°53'22410.0
2014-Sep-11 21:07N 37°40' E 009°35'7 9.3
2014-Sep-11 20:24N 37°40' E 009°43'8 9.5
2014-Sep-11 19:33N 37°40' E 009°53'20 9.3
2014-Sep-11 17:23N 37°40' E 010°19'8 9.8
2014-Sep-11 16:32N 37°39' E 010°30'1010.1
2014-Sep-11 15:34N 37°39' E 010°42'1010.1
2014-Sep-11 14:34N 37°39' E 010°55'1010.0
2014-Sep-11 13:32N 37°39' E 011°08'13010.5
2014-Sep-11 01:14N 36°60' E 013°43'710.8
2014-Sep-11 00:34N 36°57' E 013°51'1110.8
2014-Sep-10 23:34N 36°53' E 014°04'1110.7
2014-Sep-10 22:34N 36°49' E 014°16'1111.4
2014-Sep-10 21:34N 36°44' E 014°29'1110.9
2014-Sep-10 20:34N 36°40' E 014°42'1510.4
2014-Sep-10 19:09N 36°35' E 014°59'710.4
2014-Sep-10 18:31N 36°34' E 015°07'429 9.3
2014-Sep-08 20:16N 37°27' E 024°00'710.0
2014-Sep-08 19:33N 37°33' E 024°05'14 9.9
2014-Sep-08 18:06N 37°45' E 024°16'1610.1
2014-Sep-08 16:33N 37°54' E 024°32'12610.4
2014-Sep-08 04:30N 39°46' E 025°45'  

Dump ship's entire track history